Terminal Aerodrome Forecast
Issued by NWS Sioux Falls, SD

Current Version | Previous Version | Text Only | Print | Product List | Glossary On
Versions: 1 2 3 4 5 6 7 8 9 10 11 12
000
FTUS43 KFSD 222320
TAFHON
TAF
KHON 222320Z 2300/2324 15016G25KT P6SM BKN150
     FM231500 16013G21KT P6SM OVC015
     FM231800 15012KT P6SM OVC008
     FM232100 12009KT P6SM OVC008=

USA.gov is the U.S. government's official web portal to all federal, state and local government web resources and services.